sensor_id;sensor_type;location;lat;lon;timestamp;pressure;altitude;pressure_sealevel;temperature;humidity
12799;BME280;19250;42.646;26.980;2023-09-07T00:00:48;99400.09;;;21.67;100.00
12799;BME280;19250;42.646;26.980;2023-09-07T00:03:15;99398.63;;;21.96;100.00
12799;BME280;19250;42.646;26.980;2023-09-07T00:05:42;99396.88;;;21.52;100.00
12799;BME280;19250;42.646;26.980;2023-09-07T00:08:09;99397.31;;;21.05;100.00
12799;BME280;19250;42.646;26.980;2023-09-07T00:10:35;99387.56;;;20.97;100.00
12799;BME280;19250;42.646;26.980;2023-09-07T00:13:03;99393.59;;;20.99;100.00
12799;BME280;19250;42.646;26.980;2023-09-07T00:15:34;99398.22;;;21.37;100.00
12799;BME280;19250;42.646;26.980;2023-09-07T00:18:01;99400.34;;;21.59;100.00
12799;BME280;19250;42.646;26.980;2023-09-07T00:20:28;99400.13;;;21.61;100.00
12799;BME280;19250;42.646;26.980;2023-09-07T00:22:55;99393.34;;;21.45;100.00
12799;BME280;19250;42.646;26.980;2023-09-07T00:25:22;99394.16;;;21.52;100.00
12799;BME280;19250;42.646;26.980;2023-09-07T00:27:49;99390.03;;;21.68;100.00
12799;BME280;19250;42.646;26.980;2023-09-07T00:30:16;99395.63;;;21.80;100.00
12799;BME280;19250;42.646;26.980;2023-09-07T00:32:45;99392.94;;;21.73;100.00
12799;BME280;19250;42.646;26.980;2023-09-07T00:35:11;99382.72;;;21.12;100.00
12799;BME280;19250;42.646;26.980;2023-09-07T00:37:38;99383.06;;;21.16;100.00
12799;BME280;19250;42.646;26.980;2023-09-07T00:40:06;99385.38;;;21.50;100.00
12799;BME280;19250;42.646;26.980;2023-09-07T00:42:34;99381.81;;;21.25;100.00
12799;BME280;19250;42.646;26.980;2023-09-07T00:45:01;99377.13;;;20.94;100.00
12799;BME280;19250;42.646;26.980;2023-09-07T00:47:28;99377.94;;;20.95;100.00
12799;BME280;19250;42.646;26.980;2023-09-07T00:49:56;99371.00;;;21.19;100.00
12799;BME280;19250;42.646;26.980;2023-09-07T00:52:24;99375.81;;;21.10;100.00
12799;BME280;19250;42.646;26.980;2023-09-07T00:54:52;99372.22;;;20.72;100.00
12799;BME280;19250;42.646;26.980;2023-09-07T00:57:19;99369.59;;;20.96;100.00
12799;BME280;19250;42.646;26.980;2023-09-07T00:59:46;99372.69;;;21.06;100.00
12799;BME280;19250;42.646;26.980;2023-09-07T01:02:13;99377.81;;;21.28;100.00
12799;BME280;19250;42.646;26.980;2023-09-07T01:04:40;99377.38;;;21.31;100.00
12799;BME280;19250;42.646;26.980;2023-09-07T01:07:09;99380.50;;;21.34;100.00
12799;BME280;19250;42.646;26.980;2023-09-07T01:09:40;99371.53;;;21.34;100.00
12799;BME280;19250;42.646;26.980;2023-09-07T01:12:13;99382.19;;;21.60;100.00
12799;BME280;19250;42.646;26.980;2023-09-07T01:14:40;99379.47;;;21.60;100.00
12799;BME280;19250;42.646;26.980;2023-09-07T01:17:07;99388.44;;;21.60;100.00
12799;BME280;19250;42.646;26.980;2023-09-07T01:19:35;99386.53;;;21.67;100.00
12799;BME280;19250;42.646;26.980;2023-09-07T01:22:03;99380.47;;;21.65;100.00
12799;BME280;19250;42.646;26.980;2023-09-07T01:24:31;99386.78;;;21.59;100.00
12799;BME280;19250;42.646;26.980;2023-09-07T01:27:00;99386.38;;;21.56;100.00
12799;BME280;19250;42.646;26.980;2023-09-07T01:29:28;99380.19;;;21.49;100.00
12799;BME280;19250;42.646;26.980;2023-09-07T01:31:55;99378.53;;;21.41;100.00
12799;BME280;19250;42.646;26.980;2023-09-07T01:34:22;99380.19;;;21.49;100.00
12799;BME280;19250;42.646;26.980;2023-09-07T01:36:50;99378.50;;;21.48;100.00
12799;BME280;19250;42.646;26.980;2023-09-07T01:39:18;99374.06;;;21.53;100.00
12799;BME280;19250;42.646;26.980;2023-09-07T01:41:45;99369.53;;;21.47;100.00
12799;BME280;19250;42.646;26.980;2023-09-07T01:44:12;99368.94;;;21.45;100.00
12799;BME280;19250;42.646;26.980;2023-09-07T01:46:39;99361.63;;;21.46;100.00
12799;BME280;19250;42.646;26.980;2023-09-07T01:49:05;99370.69;;;21.33;100.00
12799;BME280;19250;42.646;26.980;2023-09-07T01:51:32;99370.31;;;21.23;100.00
12799;BME280;19250;42.646;26.980;2023-09-07T01:54:00;99368.72;;;21.15;100.00
12799;BME280;19250;42.646;26.980;2023-09-07T01:56:28;99361.47;;;20.96;100.00
12799;BME280;19250;42.646;26.980;2023-09-07T01:58:55;99363.50;;;21.14;100.00
12799;BME280;19250;42.646;26.980;2023-09-07T02:01:23;99373.03;;;21.23;100.00
12799;BME280;19250;42.646;26.980;2023-09-07T02:03:50;99378.72;;;21.15;100.00
12799;BME280;19250;42.646;26.980;2023-09-07T02:06:17;99372.16;;;20.85;100.00
12799;BME280;19250;42.646;26.980;2023-09-07T02:08:44;99370.84;;;20.49;100.00
12799;BME280;19250;42.646;26.980;2023-09-07T02:11:10;99371.91;;;20.42;100.00
12799;BME280;19250;42.646;26.980;2023-09-07T02:13:40;99366.94;;;20.26;100.00
12799;BME280;19250;42.646;26.980;2023-09-07T02:16:07;99364.63;;;20.23;100.00
12799;BME280;19250;42.646;26.980;2023-09-07T02:18:35;99375.66;;;20.41;100.00
12799;BME280;19250;42.646;26.980;2023-09-07T02:21:03;99371.50;;;20.12;100.00
12799;BME280;19250;42.646;26.980;2023-09-07T02:23:30;99373.94;;;20.53;100.00
12799;BME280;19250;42.646;26.980;2023-09-07T02:25:57;99378.13;;;20.49;100.00
12799;BME280;19250;42.646;26.980;2023-09-07T02:28:24;99370.72;;;20.82;100.00
12799;BME280;19250;42.646;26.980;2023-09-07T02:30:52;99377.81;;;20.77;100.00
12799;BME280;19250;42.646;26.980;2023-09-07T02:33:19;99377.22;;;20.75;100.00
12799;BME280;19250;42.646;26.980;2023-09-07T02:35:47;99377.44;;;20.73;100.00
12799;BME280;19250;42.646;26.980;2023-09-07T02:38:14;99367.69;;;20.52;100.00
12799;BME280;19250;42.646;26.980;2023-09-07T02:40:41;99379.06;;;20.81;100.00
12799;BME280;19250;42.646;26.980;2023-09-07T02:43:08;99375.44;;;21.00;100.00
12799;BME280;19250;42.646;26.980;2023-09-07T02:45:35;99378.31;;;21.05;100.00
12799;BME280;19250;42.646;26.980;2023-09-07T02:48:04;99379.78;;;20.56;100.00
12799;BME280;19250;42.646;26.980;2023-09-07T02:50:44;99380.31;;;20.85;100.00
12799;BME280;19250;42.646;26.980;2023-09-07T02:53:26;99383.53;;;21.06;100.00
12799;BME280;19250;42.646;26.980;2023-09-07T02:55:53;99367.06;;;21.01;100.00
12799;BME280;19250;42.646;26.980;2023-09-07T02:58:20;99379.34;;;21.04;100.00
12799;BME280;19250;42.646;26.980;2023-09-07T03:00:48;99373.50;;;21.07;100.00
12799;BME280;19250;42.646;26.980;2023-09-07T03:03:16;99376.22;;;21.07;100.00
12799;BME280;19250;42.646;26.980;2023-09-07T03:05:43;99369.59;;;20.96;100.00
12799;BME280;19250;42.646;26.980;2023-09-07T03:08:10;99368.81;;;20.89;100.00
12799;BME280;19250;42.646;26.980;2023-09-07T03:10:37;99366.84;;;20.52;100.00
12799;BME280;19250;42.646;26.980;2023-09-07T03:13:05;99365.66;;;20.41;100.00
12799;BME280;19250;42.646;26.980;2023-09-07T03:15:32;99373.00;;;20.08;100.00
12799;BME280;19250;42.646;26.980;2023-09-07T03:17:59;99371.09;;;20.15;100.00
12799;BME280;19250;42.646;26.980;2023-09-07T03:20:27;99375.25;;;20.37;100.00
12799;BME280;19250;42.646;26.980;2023-09-07T03:22:54;99375.47;;;20.36;100.00
12799;BME280;19250;42.646;26.980;2023-09-07T03:25:22;99376.69;;;20.46;100.00
12799;BME280;19250;42.646;26.980;2023-09-07T03:27:49;99371.66;;;20.56;100.00
12799;BME280;19250;42.646;26.980;2023-09-07T03:30:17;99380.63;;;20.57;100.00
12799;BME280;19250;42.646;26.980;2023-09-07T03:32:44;99382.75;;;20.42;100.00
12799;BME280;19250;42.646;26.980;2023-09-07T03:35:11;99381.06;;;20.47;100.00
12799;BME280;19250;42.646;26.980;2023-09-07T03:37:41;99384.03;;;20.33;100.00
12799;BME280;19250;42.646;26.980;2023-09-07T03:40:08;99388.81;;;20.04;100.00
12799;BME280;19250;42.646;26.980;2023-09-07T03:42:35;99397.59;;;19.87;100.00
12799;BME280;19250;42.646;26.980;2023-09-07T03:47:29;99399.22;;;20.07;100.00
12799;BME280;19250;42.646;26.980;2023-09-07T03:49:56;99401.91;;;20.40;100.00
12799;BME280;19250;42.646;26.980;2023-09-07T03:52:24;99398.56;;;20.51;100.00
12799;BME280;19250;42.646;26.980;2023-09-07T03:54:54;99404.78;;;20.58;100.00
12799;BME280;19250;42.646;26.980;2023-09-07T03:57:21;99404.19;;;20.37;100.00
12799;BME280;19250;42.646;26.980;2023-09-07T03:59:48;99406.72;;;20.45;100.00
12799;BME280;19250;42.646;26.980;2023-09-07T04:02:15;99406.59;;;20.78;100.00
12799;BME280;19250;42.646;26.980;2023-09-07T04:04:43;99412.41;;;20.88;100.00
12799;BME280;19250;42.646;26.980;2023-09-07T04:07:10;99406.88;;;20.56;100.00
12799;BME280;19250;42.646;26.980;2023-09-07T04:09:36;99416.63;;;20.71;100.00
12799;BME280;19250;42.646;26.980;2023-09-07T04:12:05;99414.72;;;20.84;100.00
12799;BME280;19250;42.646;26.980;2023-09-07T04:14:32;99415.25;;;21.06;100.00
12799;BME280;19250;42.646;26.980;2023-09-07T04:16:59;99411.88;;;21.17;100.00
12799;BME280;19250;42.646;26.980;2023-09-07T04:19:26;99419.00;;;21.11;100.00
12799;BME280;19250;42.646;26.980;2023-09-07T04:21:53;99413.75;;;21.16;100.00
12799;BME280;19250;42.646;26.980;2023-09-07T04:24:20;99424.97;;;21.27;100.00
12799;BME280;19250;42.646;26.980;2023-09-07T04:26:47;99428.06;;;21.37;100.00
12799;BME280;19250;42.646;26.980;2023-09-07T04:29:15;99429.44;;;21.52;100.00
12799;BME280;19250;42.646;26.980;2023-09-07T04:31:42;99426.00;;;21.63;100.00
12799;BME280;19250;42.646;26.980;2023-09-07T04:34:09;99427.56;;;21.78;100.00
12799;BME280;19250;42.646;26.980;2023-09-07T04:36:36;99428.44;;;21.71;100.00
12799;BME280;19250;42.646;26.980;2023-09-07T04:39:03;99422.69;;;21.61;99.16
12799;BME280;19250;42.646;26.980;2023-09-07T04:41:30;99423.59;;;21.49;98.14
12799;BME280;19250;42.646;26.980;2023-09-07T04:43:57;99429.50;;;21.70;96.69
12799;BME280;19250;42.646;26.980;2023-09-07T04:46:26;99426.63;;;21.97;94.90
12799;BME280;19250;42.646;26.980;2023-09-07T04:48:53;99427.91;;;21.88;94.01
12799;BME280;19250;42.646;26.980;2023-09-07T04:51:20;99422.91;;;22.16;92.48
12799;BME280;19250;42.646;26.980;2023-09-07T04:53:47;99425.31;;;22.24;92.75
12799;BME280;19250;42.646;26.980;2023-09-07T04:56:14;99429.28;;;22.28;92.89
12799;BME280;19250;42.646;26.980;2023-09-07T04:58:42;99434.56;;;22.23;92.75
12799;BME280;19250;42.646;26.980;2023-09-07T05:01:23;99434.59;;;22.41;92.87
12799;BME280;19250;42.646;26.980;2023-09-07T05:03:51;99432.22;;;22.69;89.70
12799;BME280;19250;42.646;26.980;2023-09-07T05:06:19;99433.56;;;22.97;88.60
12799;BME280;19250;42.646;26.980;2023-09-07T05:08:48;99437.25;;;23.20;87.35
12799;BME280;19250;42.646;26.980;2023-09-07T05:11:15;99434.28;;;23.22;86.86
12799;BME280;19250;42.646;26.980;2023-09-07T05:13:42;99434.34;;;23.33;86.48
12799;BME280;19250;42.646;26.980;2023-09-07T05:16:09;99433.19;;;23.59;83.84
12799;BME280;19250;42.646;26.980;2023-09-07T05:18:36;99440.34;;;23.83;84.64
12799;BME280;19250;42.646;26.980;2023-09-07T05:21:12;99434.13;;;24.06;82.53
12799;BME280;19250;42.646;26.980;2023-09-07T05:23:40;99436.88;;;24.53;78.03
12799;BME280;19250;42.646;26.980;2023-09-07T05:26:08;99446.22;;;24.80;76.10
12799;BME280;19250;42.646;26.980;2023-09-07T05:28:35;99444.78;;;24.77;74.03
12799;BME280;19250;42.646;26.980;2023-09-07T05:31:02;99444.22;;;24.75;76.72
12799;BME280;19250;42.646;26.980;2023-09-07T05:33:30;99418.59;;;24.76;74.67
12799;BME280;19250;42.646;26.980;2023-09-07T05:35:57;99445.31;;;24.86;77.16
12799;BME280;19250;42.646;26.980;2023-09-07T05:38:25;99440.91;;;24.85;77.61
12799;BME280;19250;42.646;26.980;2023-09-07T05:40:53;99445.53;;;24.84;76.23
12799;BME280;19250;42.646;26.980;2023-09-07T05:43:20;99448.59;;;24.65;77.58
12799;BME280;19250;42.646;26.980;2023-09-07T05:45:48;99451.34;;;24.76;77.00
12799;BME280;19250;42.646;26.980;2023-09-07T05:48:15;99453.25;;;24.64;78.00
12799;BME280;19250;42.646;26.980;2023-09-07T05:50:44;99450.13;;;24.96;76.72
12799;BME280;19250;42.646;26.980;2023-09-07T05:53:11;99449.06;;;24.97;75.27
12799;BME280;19250;42.646;26.980;2023-09-07T05:55:40;99449.22;;;25.30;74.58
12799;BME280;19250;42.646;26.980;2023-09-07T05:58:08;99440.31;;;25.23;70.98
12799;BME280;19250;42.646;26.980;2023-09-07T06:00:36;99453.13;;;25.34;73.64
12799;BME280;19250;42.646;26.980;2023-09-07T06:03:05;99456.38;;;25.59;70.16
12799;BME280;19250;42.646;26.980;2023-09-07T06:05:33;99451.41;;;25.56;66.92
12799;BME280;19250;42.646;26.980;2023-09-07T06:08:01;99453.19;;;25.51;70.04
12799;BME280;19250;42.646;26.980;2023-09-07T06:10:29;99462.13;;;25.91;66.92
12799;BME280;19250;42.646;26.980;2023-09-07T06:12:58;99462.47;;;25.94;64.78
12799;BME280;19250;42.646;26.980;2023-09-07T06:15:26;99463.78;;;25.47;64.80
12799;BME280;19250;42.646;26.980;2023-09-07T06:17:53;99451.47;;;25.89;67.17
12799;BME280;19250;42.646;26.980;2023-09-07T06:20:21;99459.94;;;26.05;63.97
12799;BME280;19250;42.646;26.980;2023-09-07T06:22:48;99459.78;;;26.11;62.27
12799;BME280;19250;42.646;26.980;2023-09-07T06:25:16;99457.78;;;26.40;59.63
12799;BME280;19250;42.646;26.980;2023-09-07T06:27:43;99464.38;;;26.39;61.37
12799;BME280;19250;42.646;26.980;2023-09-07T06:30:12;99463.06;;;26.80;56.54
12799;BME280;19250;42.646;26.980;2023-09-07T06:32:40;99470.03;;;26.87;54.81
12799;BME280;19250;42.646;26.980;2023-09-07T06:35:08;99468.44;;;26.91;53.64
12799;BME280;19250;42.646;26.980;2023-09-07T06:37:36;99463.94;;;27.24;52.24
12799;BME280;19250;42.646;26.980;2023-09-07T06:40:07;99465.66;;;27.08;49.85
12799;BME280;19250;42.646;26.980;2023-09-07T06:42:35;99460.09;;;27.25;51.12
12799;BME280;19250;42.646;26.980;2023-09-07T06:45:03;99459.72;;;27.38;49.69
12799;BME280;19250;42.646;26.980;2023-09-07T06:47:32;99457.06;;;27.43;50.08
12799;BME280;19250;42.646;26.980;2023-09-07T06:49:59;99455.00;;;27.82;46.45
12799;BME280;19250;42.646;26.980;2023-09-07T06:52:27;99461.84;;;27.79;46.82
12799;BME280;19250;42.646;26.980;2023-09-07T06:54:54;99456.84;;;28.03;45.76
12799;BME280;19250;42.646;26.980;2023-09-07T06:57:21;99459.47;;;27.61;46.55
12799;BME280;19250;42.646;26.980;2023-09-07T06:59:49;99458.78;;;27.76;46.02
12799;BME280;19250;42.646;26.980;2023-09-07T07:02:16;99456.38;;;27.79;46.30
12799;BME280;19250;42.646;26.980;2023-09-07T07:04:45;99455.63;;;27.62;44.96
12799;BME280;19250;42.646;26.980;2023-09-07T07:07:12;99458.69;;;27.66;44.71
12799;BME280;19250;42.646;26.980;2023-09-07T07:09:39;99461.41;;;27.92;45.73
12799;BME280;19250;42.646;26.980;2023-09-07T07:12:07;99456.00;;;28.29;44.57
12799;BME280;19250;42.646;26.980;2023-09-07T07:14:34;99459.44;;;28.46;44.12
12799;BME280;19250;42.646;26.980;2023-09-07T07:17:01;99461.34;;;28.46;42.91
12799;BME280;19250;42.646;26.980;2023-09-07T07:19:30;99464.72;;;28.58;42.50
12799;BME280;19250;42.646;26.980;2023-09-07T07:21:59;99464.94;;;28.51;42.27
12799;BME280;19250;42.646;26.980;2023-09-07T07:24:26;99462.69;;;28.43;43.13
12799;BME280;19250;42.646;26.980;2023-09-07T07:26:54;99462.44;;;28.45;43.16
12799;BME280;19250;42.646;26.980;2023-09-07T07:29:21;99458.53;;;28.41;43.25
12799;BME280;19250;42.646;26.980;2023-09-07T07:31:48;99453.41;;;28.86;42.46
12799;BME280;19250;42.646;26.980;2023-09-07T07:34:15;99457.00;;;28.97;42.47
12799;BME280;19250;42.646;26.980;2023-09-07T07:36:43;99456.44;;;29.47;43.86
12799;BME280;19250;42.646;26.980;2023-09-07T07:39:11;99457.25;;;29.57;40.66
12799;BME280;19250;42.646;26.980;2023-09-07T07:41:39;99459.34;;;29.20;41.44
12799;BME280;19250;42.646;26.980;2023-09-07T07:44:06;99459.00;;;29.11;41.29
12799;BME280;19250;42.646;26.980;2023-09-07T07:46:33;99470.81;;;29.07;41.62
12799;BME280;19250;42.646;26.980;2023-09-07T07:49:01;99462.19;;;29.45;41.85
12799;BME280;19250;42.646;26.980;2023-09-07T07:51:28;99454.25;;;29.59;40.52
12799;BME280;19250;42.646;26.980;2023-09-07T07:53:55;99460.34;;;29.76;39.95
12799;BME280;19250;42.646;26.980;2023-09-07T07:56:24;99469.19;;;30.34;39.35
12799;BME280;19250;42.646;26.980;2023-09-07T07:58:51;99457.34;;;29.83;39.08
12799;BME280;19250;42.646;26.980;2023-09-07T08:01:20;99462.59;;;29.94;38.12
12799;BME280;19250;42.646;26.980;2023-09-07T08:03:47;99460.09;;;29.83;38.92
12799;BME280;19250;42.646;26.980;2023-09-07T08:06:14;99415.31;;;30.02;39.02
12799;BME280;19250;42.646;26.980;2023-09-07T08:08:42;99452.09;;;29.76;39.17
12799;BME280;19250;42.646;26.980;2023-09-07T08:11:09;99432.66;;;29.15;39.89
12799;BME280;19250;42.646;26.980;2023-09-07T08:13:38;99454.81;;;29.56;38.87
12799;BME280;19250;42.646;26.980;2023-09-07T08:16:05;99454.59;;;29.83;39.37
12799;BME280;19250;42.646;26.980;2023-09-07T08:18:33;99451.06;;;29.87;38.32
12799;BME280;19250;42.646;26.980;2023-09-07T08:21:01;99445.53;;;29.97;39.68
12799;BME280;19250;42.646;26.980;2023-09-07T08:23:28;99447.72;;;29.85;38.84
12799;BME280;19250;42.646;26.980;2023-09-07T08:25:55;99442.50;;;29.89;38.29
12799;BME280;19250;42.646;26.980;2023-09-07T08:28:24;99455.19;;;30.35;38.04
12799;BME280;19250;42.646;26.980;2023-09-07T08:30:53;99460.94;;;30.94;36.99
12799;BME280;19250;42.646;26.980;2023-09-07T08:33:20;99458.63;;;31.21;36.37
12799;BME280;19250;42.646;26.980;2023-09-07T08:35:55;99466.97;;;30.91;37.09
12799;BME280;19250;42.646;26.980;2023-09-07T08:38:23;99465.38;;;30.70;37.46
12799;BME280;19250;42.646;26.980;2023-09-07T08:40:54;99461.22;;;30.67;37.38
12799;BME280;19250;42.646;26.980;2023-09-07T08:43:22;99463.56;;;31.19;36.74
12799;BME280;19250;42.646;26.980;2023-09-07T08:46:05;99471.34;;;31.07;36.68
12799;BME280;19250;42.646;26.980;2023-09-07T08:48:37;99464.63;;;31.28;36.17
12799;BME280;19250;42.646;26.980;2023-09-07T08:51:06;99450.28;;;31.37;36.14
12799;BME280;19250;42.646;26.980;2023-09-07T08:53:35;99463.31;;;31.80;35.87
12799;BME280;19250;42.646;26.980;2023-09-07T08:56:04;99458.47;;;31.96;34.52
12799;BME280;19250;42.646;26.980;2023-09-07T08:58:35;99467.03;;;32.04;34.35
12799;BME280;19250;42.646;26.980;2023-09-07T09:01:05;99463.19;;;31.95;34.32
12799;BME280;19250;42.646;26.980;2023-09-07T09:03:34;99457.97;;;32.61;34.12
12799;BME280;19250;42.646;26.980;2023-09-07T09:06:01;99460.81;;;32.80;32.46
12799;BME280;19250;42.646;26.980;2023-09-07T09:08:30;99455.66;;;32.40;33.44
12799;BME280;19250;42.646;26.980;2023-09-07T09:11:01;99463.50;;;31.40;32.51
12799;BME280;19250;42.646;26.980;2023-09-07T09:13:30;99444.16;;;31.45;32.44
12799;BME280;19250;42.646;26.980;2023-09-07T09:15:59;99461.22;;;31.62;32.54
12799;BME280;19250;42.646;26.980;2023-09-07T09:18:29;99454.84;;;32.05;32.54
12799;BME280;19250;42.646;26.980;2023-09-07T09:20:56;99460.88;;;31.68;32.79
12799;BME280;19250;42.646;26.980;2023-09-07T09:23:24;99464.59;;;32.31;31.74
12799;BME280;19250;42.646;26.980;2023-09-07T09:25:52;99466.31;;;32.56;31.46
12799;BME280;19250;42.646;26.980;2023-09-07T09:28:19;99456.72;;;33.01;31.32
12799;BME280;19250;42.646;26.980;2023-09-07T09:30:46;99457.22;;;32.56;31.79
12799;BME280;19250;42.646;26.980;2023-09-07T09:33:14;99448.94;;;32.56;32.21
12799;BME280;19250;42.646;26.980;2023-09-07T09:35:44;99446.00;;;32.71;32.12
12799;BME280;19250;42.646;26.980;2023-09-07T09:38:13;99437.66;;;32.76;32.01
12799;BME280;19250;42.646;26.980;2023-09-07T09:40:40;99440.81;;;32.64;32.76
12799;BME280;19250;42.646;26.980;2023-09-07T09:43:08;99439.94;;;32.40;33.03
12799;BME280;19250;42.646;26.980;2023-09-07T09:45:37;99446.41;;;32.25;32.51
12799;BME280;19250;42.646;26.980;2023-09-07T09:48:05;99436.38;;;32.68;32.79
12799;BME280;19250;42.646;26.980;2023-09-07T09:50:33;99441.81;;;31.77;33.05
12799;BME280;19250;42.646;26.980;2023-09-07T09:53:05;99434.78;;;31.56;33.56
12799;BME280;19250;42.646;26.980;2023-09-07T09:55:34;99422.63;;;31.47;34.06
12799;BME280;19250;42.646;26.980;2023-09-07T09:58:02;99426.38;;;31.22;34.71
12799;BME280;19250;42.646;26.980;2023-09-07T10:00:30;99425.13;;;31.48;34.57
12799;BME280;19250;42.646;26.980;2023-09-07T10:03:07;99423.94;;;31.05;35.90
12799;BME280;19250;42.646;26.980;2023-09-07T10:05:37;99417.16;;;31.42;34.96
12799;BME280;19250;42.646;26.980;2023-09-07T10:08:12;99399.81;;;32.19;34.54
12799;BME280;19250;42.646;26.980;2023-09-07T10:10:42;99403.69;;;32.99;34.41
12799;BME280;19250;42.646;26.980;2023-09-07T10:13:13;99406.72;;;33.21;32.82
12799;BME280;19250;42.646;26.980;2023-09-07T10:15:41;99406.09;;;32.82;33.21
12799;BME280;19250;42.646;26.980;2023-09-07T10:18:13;99409.50;;;32.98;33.02
12799;BME280;19250;42.646;26.980;2023-09-07T10:20:49;99413.91;;;32.99;32.51
12799;BME280;19250;42.646;26.980;2023-09-07T10:23:18;99403.09;;;33.45;31.88
12799;BME280;19250;42.646;26.980;2023-09-07T10:25:50;99405.75;;;33.31;32.45
12799;BME280;19250;42.646;26.980;2023-09-07T10:28:21;99401.47;;;33.81;32.40
12799;BME280;19250;42.646;26.980;2023-09-07T10:30:59;99410.72;;;33.53;32.39
12799;BME280;19250;42.646;26.980;2023-09-07T10:39:38;99394.44;;;32.04;34.31
12799;BME280;19250;42.646;26.980;2023-09-07T10:42:08;99392.59;;;32.52;32.99
12799;BME280;19250;42.646;26.980;2023-09-07T10:44:34;99396.13;;;33.28;32.09
12799;BME280;19250;42.646;26.980;2023-09-07T10:47:04;99376.09;;;33.55;31.36
12799;BME280;19250;42.646;26.980;2023-09-07T10:49:31;99400.00;;;33.04;32.59
12799;BME280;19250;42.646;26.980;2023-09-07T10:51:58;99388.22;;;32.46;34.05
12799;BME280;19250;42.646;26.980;2023-09-07T10:54:25;99389.72;;;32.33;33.38
12799;BME280;19250;42.646;26.980;2023-09-07T10:56:54;99392.56;;;33.84;31.39
12799;BME280;19250;42.646;26.980;2023-09-07T10:59:27;99378.34;;;33.53;30.92
12799;BME280;19250;42.646;26.980;2023-09-07T11:01:55;99390.03;;;33.69;30.23
12799;BME280;19250;42.646;26.980;2023-09-07T11:04:29;99393.75;;;34.29;29.69
12799;BME280;19250;42.646;26.980;2023-09-07T11:06:57;99383.72;;;34.33;29.29
12799;BME280;19250;42.646;26.980;2023-09-07T11:09:24;99372.66;;;35.28;28.84
12799;BME280;19250;42.646;26.980;2023-09-07T11:11:51;99372.47;;;35.25;28.44
12799;BME280;19250;42.646;26.980;2023-09-07T11:14:21;99370.31;;;35.08;28.84
12799;BME280;19250;42.646;26.980;2023-09-07T11:16:49;99374.34;;;34.88;28.79
12799;BME280;19250;42.646;26.980;2023-09-07T11:19:16;99370.53;;;35.25;28.06
12799;BME280;19250;42.646;26.980;2023-09-07T11:21:44;99360.03;;;36.16;27.39
12799;BME280;19250;42.646;26.980;2023-09-07T11:24:14;99358.03;;;36.70;26.15
12799;BME280;19250;42.646;26.980;2023-09-07T11:26:42;99357.63;;;34.20;29.01
12799;BME280;19250;42.646;26.980;2023-09-07T11:29:13;99346.59;;;35.02;28.50
12799;BME280;19250;42.646;26.980;2023-09-07T11:31:42;99337.75;;;35.14;27.61
12799;BME280;19250;42.646;26.980;2023-09-07T11:34:10;99346.81;;;34.92;27.63
12799;BME280;19250;42.646;26.980;2023-09-07T11:36:39;99303.34;;;33.73;28.59
12799;BME280;19250;42.646;26.980;2023-09-07T11:39:06;99337.81;;;33.81;28.80
12799;BME280;19250;42.646;26.980;2023-09-07T11:41:38;99334.47;;;34.43;28.16
12799;BME280;19250;42.646;26.980;2023-09-07T11:44:07;99323.72;;;35.10;27.83
12799;BME280;19250;42.646;26.980;2023-09-07T11:46:34;99324.19;;;35.84;27.26
12799;BME280;19250;42.646;26.980;2023-09-07T11:49:03;99333.16;;;35.59;27.32
12799;BME280;19250;42.646;26.980;2023-09-07T11:51:31;99320.06;;;35.23;27.70
12799;BME280;19250;42.646;26.980;2023-09-07T11:53:58;99331.97;;;34.15;29.08
12799;BME280;19250;42.646;26.980;2023-09-07T11:56:26;99320.03;;;33.12;30.29
12799;BME280;19250;42.646;26.980;2023-09-07T11:58:53;99317.59;;;33.11;30.27
12799;BME280;19250;42.646;26.980;2023-09-07T12:01:21;99323.41;;;33.28;30.18
12799;BME280;19250;42.646;26.980;2023-09-07T12:03:49;99323.47;;;32.62;31.43
12799;BME280;19250;42.646;26.980;2023-09-07T12:06:17;99326.47;;;33.26;30.07
12799;BME280;19250;42.646;26.980;2023-09-07T12:08:58;99322.91;;;33.63;29.63
12799;BME280;19250;42.646;26.980;2023-09-07T12:11:25;99322.00;;;33.12;30.57
12799;BME280;19250;42.646;26.980;2023-09-07T12:13:53;99324.31;;;33.00;31.35
12799;BME280;19250;42.646;26.980;2023-09-07T12:16:20;99322.09;;;33.02;30.90
12799;BME280;19250;42.646;26.980;2023-09-07T12:18:48;99331.03;;;32.75;31.16
12799;BME280;19250;42.646;26.980;2023-09-07T12:21:16;99322.19;;;31.63;32.43
12799;BME280;19250;42.646;26.980;2023-09-07T12:23:44;99317.56;;;31.87;32.63
12799;BME280;19250;42.646;26.980;2023-09-07T12:26:11;99303.00;;;33.05;30.58
12799;BME280;19250;42.646;26.980;2023-09-07T12:28:40;99321.44;;;33.84;29.40
12799;BME280;19250;42.646;26.980;2023-09-07T12:31:07;99306.78;;;34.98;28.18
12799;BME280;19250;42.646;26.980;2023-09-07T12:33:35;99303.81;;;35.30;28.28
12799;BME280;19250;42.646;26.980;2023-09-07T12:36:03;99317.41;;;35.18;28.29
12799;BME280;19250;42.646;26.980;2023-09-07T12:38:36;99314.47;;;33.87;30.17
12799;BME280;19250;42.646;26.980;2023-09-07T12:41:03;99320.91;;;34.56;30.24
12799;BME280;19250;42.646;26.980;2023-09-07T12:43:30;99318.69;;;33.28;30.06
12799;BME280;19250;42.646;26.980;2023-09-07T12:45:59;99324.66;;;32.51;31.23
12799;BME280;19250;42.646;26.980;2023-09-07T12:48:26;99317.84;;;32.19;31.51
12799;BME280;19250;42.646;26.980;2023-09-07T12:50:54;99315.03;;;31.62;33.10
12799;BME280;19250;42.646;26.980;2023-09-07T12:53:21;99317.44;;;32.97;32.19
12799;BME280;19250;42.646;26.980;2023-09-07T12:55:53;99318.81;;;35.29;29.28
12799;BME280;19250;42.646;26.980;2023-09-07T12:58:21;99310.88;;;36.03;28.24